createdAt,value
2022-11-02T00:00:49.004Z,10.40
2022-11-02T00:06:50.883Z,10.40
2022-11-02T00:12:53.332Z,10.40
2022-11-02T00:18:58.208Z,10.40
2022-11-02T00:25:04.277Z,10.50
2022-11-02T00:31:06.251Z,10.60
2022-11-02T00:37:08.232Z,10.60
2022-11-02T00:43:10.119Z,10.50
2022-11-02T00:49:12.274Z,10.60
2022-11-02T00:55:15.483Z,10.70
2022-11-02T01:01:19.589Z,10.60
2022-11-02T01:07:21.562Z,10.60
2022-11-02T01:13:23.416Z,10.70
2022-11-02T01:19:26.161Z,10.50
2022-11-02T01:25:28.023Z,10.40
2022-11-02T01:31:29.930Z,10.50
2022-11-02T01:37:31.832Z,10.80
2022-11-02T01:43:37.809Z,10.70
2022-11-02T01:49:43.323Z,10.90
2022-11-02T01:55:45.435Z,11.00
2022-11-02T02:01:49.115Z,11.00
2022-11-02T02:07:52.119Z,10.80
2022-11-02T02:14:00.687Z,10.70
2022-11-02T02:20:31.207Z,10.60
2022-11-02T02:26:52.106Z,10.60
2022-11-02T02:33:02.848Z,10.50
2022-11-02T02:39:22.746Z,10.50
2022-11-02T02:45:37.753Z,10.40
2022-11-02T02:51:41.457Z,10.40
2022-11-02T02:57:46.974Z,10.50
2022-11-02T03:03:49.381Z,10.60
2022-11-02T03:10:04.673Z,10.90
2022-11-02T03:16:27.785Z,11.10
2022-11-02T03:22:45.968Z,11.10
2022-11-02T03:28:48.340Z,11.10
2022-11-02T03:34:58.132Z,11.10
2022-11-02T03:41:04.856Z,11.00
2022-11-02T03:47:12.514Z,11.00
2022-11-02T03:53:32.563Z,11.00
2022-11-02T03:59:34.827Z,11.00
2022-11-02T04:05:37.644Z,11.20
2022-11-02T04:12:04.813Z,11.10
2022-11-02T04:18:26.444Z,11.00
2022-11-02T04:24:47.019Z,11.00
2022-11-02T04:30:49.033Z,11.00
2022-11-02T04:36:51.547Z,11.10
2022-11-02T04:42:53.774Z,11.20
2022-11-02T04:48:56.353Z,11.30
2022-11-02T04:54:59.446Z,11.30
2022-11-02T05:01:08.626Z,11.30
2022-11-02T05:07:12.149Z,11.30
2022-11-02T05:13:14.415Z,11.10
2022-11-02T05:19:17.320Z,11.00
2022-11-02T05:25:19.920Z,10.80
2022-11-02T05:31:22.030Z,10.70
2022-11-02T05:37:25.204Z,10.60
2022-11-02T05:43:28.397Z,10.60
2022-11-02T05:49:31.574Z,10.50
2022-11-02T05:55:33.790Z,10.40
2022-11-02T06:01:35.820Z,10.30
2022-11-02T06:07:37.728Z,10.20
2022-11-02T06:13:40.714Z,10.10
2022-11-02T06:19:42.608Z,10.10
2022-11-02T06:25:51.306Z,10.30
2022-11-02T06:31:53.274Z,10.30
2022-11-02T06:37:55.194Z,10.30
2022-11-02T06:43:57.078Z,10.20
2022-11-02T06:49:59.932Z,10.20
2022-11-02T06:56:01.939Z,10.20
2022-11-02T07:02:04.046Z,10.40
2022-11-02T07:08:06.666Z,10.50
2022-11-02T07:14:08.941Z,10.50
2022-11-02T07:20:11.656Z,10.50
2022-11-02T07:26:13.642Z,10.60
2022-11-02T07:32:15.693Z,10.80
2022-11-02T07:38:17.658Z,11.10
2022-11-02T07:44:19.856Z,11.50
2022-11-02T07:50:30.531Z,11.80
2022-11-02T07:56:32.414Z,11.90
2022-11-02T08:02:34.424Z,12.10
2022-11-02T08:08:36.572Z,12.20
2022-11-02T08:14:38.450Z,12.60
2022-11-02T08:20:42.815Z,12.90
2022-11-02T08:26:45.951Z,12.70
2022-11-02T08:32:51.541Z,12.70
2022-11-02T08:38:57.617Z,12.90
2022-11-02T08:44:59.896Z,13.10
2022-11-02T08:51:02.795Z,13.30
2022-11-02T08:57:04.685Z,13.50
2022-11-02T09:03:15.276Z,13.90
2022-11-02T09:09:17.405Z,14.40
2022-11-02T09:15:19.400Z,14.40
2022-11-02T09:21:21.451Z,14.30
2022-11-02T09:27:23.434Z,14.20
2022-11-02T09:33:25.529Z,13.90
2022-11-02T09:39:27.434Z,13.80
2022-11-02T09:45:34.353Z,13.80
2022-11-02T09:51:49.190Z,13.80
2022-11-02T09:57:59.523Z,13.80
2022-11-02T10:04:22.976Z,13.80
2022-11-02T10:10:46.120Z,13.90
2022-11-02T10:16:59.103Z,14.30
2022-11-02T10:23:08.886Z,15.10
2022-11-02T10:29:33.904Z,15.60
2022-11-02T10:36:18.921Z,15.60
2022-11-02T10:43:06.147Z,15.60
2022-11-02T10:49:24.754Z,15.30
2022-11-02T10:55:36.930Z,14.80
2022-11-02T11:02:03.749Z,14.50
2022-11-02T11:08:06.803Z,14.40
2022-11-02T11:20:41.428Z,15.50
2022-11-02T11:26:43.293Z,15.90
2022-11-02T11:32:47.805Z,15.80
2022-11-02T11:38:50.976Z,15.70
2022-11-02T11:45:01.034Z,15.50
2022-11-02T11:51:04.156Z,15.40
2022-11-02T11:57:33.586Z,15.40
2022-11-02T12:03:55.629Z,15.50
2022-11-02T12:10:00.273Z,15.70
2022-11-02T12:16:24.379Z,15.60
2022-11-02T12:22:51.253Z,15.20
2022-11-02T12:29:02.540Z,15.10
2022-11-02T12:35:37.963Z,15.30
2022-11-02T12:42:17.498Z,15.50
2022-11-02T12:48:38.813Z,15.50
2022-11-02T12:54:50.030Z,15.30
2022-11-02T13:01:02.685Z,15.30
2022-11-02T13:07:20.374Z,14.90
2022-11-02T13:13:53.722Z,14.70
2022-11-02T13:20:02.373Z,14.60
2022-11-02T13:26:11.857Z,15.00
2022-11-02T13:32:37.822Z,15.40
2022-11-02T13:39:10.129Z,15.70
2022-11-02T13:45:20.990Z,15.70
2022-11-02T13:51:37.778Z,15.60
2022-11-02T13:57:47.382Z,15.50
2022-11-02T14:20:37.721Z,15.10
2022-11-02T14:26:57.321Z,14.90
2022-11-02T14:33:36.989Z,14.90
2022-11-02T14:55:44.410Z,14.50
2022-11-02T15:25:19.175Z,13.60
2022-11-02T15:31:26.412Z,13.10
2022-11-02T15:37:37.299Z,12.90
2022-11-02T15:44:13.140Z,12.60
2022-11-02T15:50:55.131Z,12.30
2022-11-02T15:57:20.446Z,11.90
2022-11-02T16:03:22.493Z,11.60
2022-11-02T16:09:36.259Z,11.30
2022-11-02T16:15:42.231Z,10.90
2022-11-02T16:21:44.251Z,10.60
2022-11-02T16:27:46.344Z,10.40
2022-11-02T16:40:28.443Z,9.70
2022-11-02T16:46:41.872Z,9.30
2022-11-02T16:52:59.825Z,9.10
2022-11-02T16:59:05.228Z,8.90
2022-11-02T17:05:14.755Z,8.60
2022-11-02T17:11:17.970Z,8.40
2022-11-02T17:17:22.741Z,8.20
2022-11-02T17:23:34.247Z,8.00
2022-11-02T17:29:40.126Z,7.70
2022-11-02T17:35:47.326Z,7.60
2022-11-02T17:42:16.370Z,7.50
2022-11-02T17:48:18.238Z,7.50
2022-11-02T17:54:20.230Z,7.60
2022-11-02T18:00:23.284Z,7.50
2022-11-02T18:06:25.233Z,7.30
2022-11-02T18:12:27.071Z,7.20
2022-11-02T18:18:28.917Z,7.10
2022-11-02T18:24:30.759Z,7.10
2022-11-02T18:30:32.676Z,7.10
2022-11-02T18:36:40.796Z,7.40
2022-11-02T18:42:43.969Z,7.60
2022-11-02T18:48:46.065Z,7.90
2022-11-02T18:54:47.934Z,8.00
2022-11-02T19:00:49.886Z,8.20
2022-11-02T19:07:12.516Z,8.10
2022-11-02T19:13:17.265Z,8.20
2022-11-02T19:19:19.114Z,8.30
2022-11-02T19:25:21.000Z,8.20
2022-11-02T19:31:22.835Z,8.10
2022-11-02T19:37:24.616Z,7.90
2022-11-02T19:43:26.437Z,7.90
2022-11-02T19:49:28.278Z,7.80
2022-11-02T19:55:30.151Z,7.70
2022-11-02T20:01:40.711Z,7.80
2022-11-02T20:07:42.643Z,7.90
2022-11-02T20:13:45.375Z,7.90
2022-11-02T20:19:47.297Z,8.00
2022-11-02T20:25:49.214Z,7.90
2022-11-02T20:31:51.010Z,7.80
2022-11-02T20:37:53.922Z,7.90
2022-11-02T20:43:55.984Z,8.00
2022-11-02T20:49:57.861Z,8.00
2022-11-02T20:55:59.777Z,8.00
2022-11-02T21:02:01.830Z,8.00
2022-11-02T21:08:03.917Z,8.00
2022-11-02T21:14:05.758Z,7.90
2022-11-02T21:26:31.343Z,8.00
2022-11-02T21:32:33.278Z,8.10
2022-11-02T21:38:35.355Z,8.10
2022-11-02T21:44:37.152Z,8.20
2022-11-02T21:50:38.979Z,8.30
2022-11-02T21:56:40.900Z,8.30
2022-11-02T22:02:42.817Z,8.10
2022-11-02T22:08:44.845Z,7.90
2022-11-02T22:14:46.710Z,7.90
2022-11-02T22:20:55.416Z,7.80
2022-11-02T22:26:57.253Z,7.70
2022-11-02T22:32:59.082Z,7.70
2022-11-02T22:39:02.544Z,7.70
2022-11-02T22:45:04.790Z,7.70
2022-11-02T22:51:07.546Z,7.60
2022-11-02T22:57:09.378Z,7.70
2022-11-02T23:03:11.220Z,7.70
2022-11-02T23:09:13.135Z,7.70
2022-11-02T23:15:14.978Z,7.80
2022-11-02T23:21:16.790Z,7.70
2022-11-02T23:27:18.651Z,7.70
2022-11-02T23:33:21.385Z,7.60
2022-11-02T23:39:41.757Z,7.60
2022-11-02T23:45:43.586Z,7.60
2022-11-02T23:52:03.866Z,7.60
2022-11-02T23:58:05.861Z,7.60
